Time;durP1;ratioP1;P1;durP2;ratioP2;P2;SDS_P1;SDS_P2;PMS_P1;PMS_P2;Temp;Humidity;BMP_temperature;BMP_pressure;BME280_temperature;BME280_humidity;BME280_pressure;Samples;Min_cycle;Max_cycle;Signal;HPM_P1;HPM_P2
2022/01/23 00:00:19;;;;;;;21.73;10.52;;;4.80;99.90;;;;;;5089557;28;20393;-62
2022/01/23 00:02:50;;;;;;;20.60;10.05;;;4.80;99.90;;;;;;5089585;28;20374;-61
2022/01/23 00:05:16;;;;;;;23.17;12.13;;;4.90;99.90;;;;;;5088597;28;20378;-61
2022/01/23 00:07:44;;;;;;;18.50;9.73;;;4.80;99.90;;;;;;5089621;28;20394;-60
2022/01/23 00:10:11;;;;;;;19.83;9.80;;;6.20;99.90;;;;;;5089095;28;20409;-60
2022/01/23 00:12:46;;;;;;;19.90;10.10;;;4.80;99.90;;;;;;5089430;28;20386;-61
2022/01/23 00:17:57;;;;;;;20.58;10.10;;;4.90;99.90;;;;;;5089294;28;20473;-60
2022/01/23 00:20:23;;;;;;;22.17;10.90;;;4.90;99.90;;;;;;5088792;28;20370;-61
2022/01/23 00:22:53;;;;;;;20.10;10.20;;;4.90;99.90;;;;;;5088014;28;20794;-60
2022/01/23 00:30:49;;;;;;;19.63;9.50;;;5.10;99.90;;;;;;5088985;28;20377;-60
2022/01/23 00:33:15;;;;;;;20.60;10.50;;;5.10;99.90;;;;;;5088413;28;20397;-60
2022/01/23 00:35:43;;;;;;;20.60;10.10;;;5.20;99.90;;;;;;5089168;28;20430;-60
2022/01/23 00:38:10;;;;;;;20.90;10.15;;;5.10;99.90;;;;;;5088716;28;20476;-61
2022/01/23 00:40:38;;;;;;;21.87;11.20;;;5.10;99.90;;;;;;5089129;28;20370;-60
2022/01/23 00:43:15;;;;;;;18.85;10.10;;;5.20;99.90;;;;;;5088914;28;20404;-60
2022/01/23 00:45:56;;;;;;;19.27;9.80;;;5.30;99.90;;;;;;5089129;28;20421;-60
2022/01/23 00:48:26;;;;;;;20.10;10.00;;;5.30;99.90;;;;;;5088141;28;20478;-60
2022/01/23 00:50:52;;;;;;;20.30;9.80;;;5.20;99.90;;;;;;5088859;28;20461;-60
2022/01/23 00:53:18;;;;;;;20.80;10.20;;;5.20;99.90;;;;;;5088861;28;20547;-59
2022/01/23 00:55:46;;;;;;;18.98;9.60;;;5.10;99.90;;;;;;5087686;28;20402;-59
2022/01/23 00:58:12;;;;;;;20.67;9.90;;;5.10;99.90;;;;;;5088569;28;20384;-60
2022/01/23 01:00:39;;;;;;;18.83;9.73;;;5.10;99.90;;;;;;5089144;28;20792;-60
2022/01/23 01:03:05;;;;;;;18.95;9.57;;;5.00;99.90;;;;;;5088719;28;20484;-60
2022/01/23 01:05:31;;;;;;;21.77;11.10;;;5.10;99.90;;;;;;5088067;28;20489;-60
2022/01/23 01:07:58;;;;;;;21.27;10.97;;;5.30;99.90;;;;;;5088972;28;20382;-60
2022/01/23 01:10:33;;;;;;;25.98;12.30;;;5.30;99.90;;;;;;5090963;28;20389;-60
2022/01/23 01:13:01;;;;;;;24.30;12.85;;;5.40;99.90;;;;;;5092653;28;20518;-60
2022/01/23 01:15:41;;;;;;;28.67;13.93;;;5.40;99.90;;;;;;5090228;28;20394;-60
2022/01/23 01:31:53;;;;;;;33.95;16.80;;;5.10;99.90;;;;;;5092221;28;20436;-60
2022/01/23 01:34:33;;;;;;;32.63;15.98;;;5.20;99.90;;;;;;5090014;28;20402;-60
2022/01/23 01:36:58;;;;;;;31.73;16.60;;;5.10;99.90;;;;;;5092074;28;20397;-60
2022/01/23 01:39:27;;;;;;;30.75;16.70;;;5.10;99.90;;;;;;5089887;28;20735;-60
2022/01/23 01:41:54;;;;;;;32.80;16.27;;;5.70;99.90;;;;;;5092114;28;20502;-60
2022/01/23 01:44:22;;;;;;;40.07;19.43;;;5.20;99.90;;;;;;5091298;28;20386;-60
2022/01/23 01:46:48;;;;;;;37.80;19.38;;;5.20;99.90;;;;;;5091404;28;20462;-59
2022/01/23 01:49:14;;;;;;;31.67;16.55;;;5.20;99.90;;;;;;5091078;28;20386;-60
2022/01/23 01:51:40;;;;;;;34.42;15.73;;;5.20;99.90;;;;;;5091922;28;20385;-60
2022/01/23 01:54:17;;;;;;;40.70;20.13;;;5.30;99.90;;;;;;5091733;28;20750;-59
2022/01/23 01:57:17;;;;;;;32.13;16.80;;;5.20;99.90;;;;;;5091552;28;20378;-60
2022/01/23 02:10:26;;;;;;;37.33;16.63;;;6.10;99.90;;;;;;5090665;28;20413;-60
2022/01/23 02:13:13;;;;;;;33.17;16.23;;;5.00;99.90;;;;;;5091120;28;20422;-59
2022/01/23 02:24:34;;;;;;;30.35;16.25;;;4.90;99.90;;;;;;5091319;28;20369;-61
2022/01/23 02:52:18;;;;;;;33.97;16.77;;;4.50;99.90;;;;;;5090781;28;20447;-60
2022/01/23 02:54:54;;;;;;;38.83;16.70;;;4.60;99.90;;;;;;5090460;28;20872;-59
2022/01/23 02:57:34;;;;;;;34.58;15.75;;;4.50;99.90;;;;;;5088504;28;20823;-59
2022/01/23 03:00:00;;;;;;;33.50;17.05;;;4.60;99.90;;;;;;5090573;28;20396;-59
2022/01/23 03:02:37;;;;;;;35.88;17.27;;;4.50;99.90;;;;;;5089337;28;20432;-59
2022/01/23 03:05:04;;;;;;;33.53;17.08;;;4.50;99.90;;;;;;5089395;28;20390;-60
2022/01/23 03:07:53;;;;;;;35.33;18.48;;;4.50;99.90;;;;;;5089674;28;20447;-60
2022/01/23 03:10:29;;;;;;;27.55;14.45;;;4.60;99.90;;;;;;5089743;28;20389;-60
2022/01/23 03:15:59;;;;;;;32.10;15.43;;;4.80;99.90;;;;;;5089496;28;20945;-60
2022/01/23 03:29:22;;;;;;;33.03;16.10;;;5.60;99.90;;;;;;5089733;28;20804;-59
2022/01/23 03:34:16;;;;;;;30.30;14.90;;;5.20;99.90;;;;;;5089392;28;20382;-59
2022/01/23 03:36:42;;;;;;;34.03;15.77;;;5.20;99.90;;;;;;5090028;28;20781;-60
2022/01/23 03:39:09;;;;;;;31.60;16.23;;;5.10;99.90;;;;;;5089949;28;20385;-59
2022/01/23 03:41:37;;;;;;;33.57;15.67;;;5.10;99.90;;;;;;5089301;28;20377;-60
2022/01/23 03:44:05;;;;;;;34.75;16.65;;;5.10;99.90;;;;;;5089660;28;20913;-60
2022/01/23 03:46:48;;;;;;;31.60;16.80;;;5.20;99.90;;;;;;5088541;28;20929;-60
2022/01/23 03:49:34;;;;;;;31.85;14.98;;;5.30;99.90;;;;;;5089559;28;20470;-60
2022/01/23 03:52:05;;;;;;;30.05;15.43;;;5.20;99.90;;;;;;5089871;28;20390;-60
2022/01/23 03:54:32;;;;;;;31.80;15.60;;;5.20;99.90;;;;;;5088858;28;20469;-60
2022/01/23 03:57:00;;;;;;;32.10;14.88;;;5.10;99.90;;;;;;5089792;28;20435;-60
2022/01/23 03:59:27;;;;;;;28.33;14.30;;;5.00;99.90;;;;;;5088908;28;20388;-60
2022/01/23 04:01:52;;;;;;;30.58;15.50;;;4.90;99.90;;;;;;5089377;28;20863;-59
2022/01/23 04:04:51;;;;;;;31.50;15.00;;;4.90;99.90;;;;;;5088605;28;20431;-60
2022/01/23 04:07:10;;;;;;;29.20;15.38;;;4.90;99.90;;;;;;5087436;28;20414;-60
2022/01/23 04:09:37;;;;;;;29.77;14.77;;;5.10;99.90;;;;;;5088777;28;20453;-60
2022/01/23 04:12:04;;;;;;;32.00;14.80;;;5.00;99.90;;;;;;5089818;28;20400;-59
2022/01/23 04:14:32;;;;;;;33.33;16.77;;;4.80;99.90;;;;;;5088753;28;20926;-61
2022/01/23 05:00:33;;;;;;;35.58;17.70;;;4.70;99.90;;;;;;5092024;28;20377;-62
2022/01/23 05:05:32;;;;;;;30.80;15.40;;;4.80;99.90;;;;;;5092033;28;20458;-61
2022/01/23 05:08:00;;;;;;;31.63;16.30;;;4.80;99.90;;;;;;5092797;28;20382;-61
2022/01/23 05:10:26;;;;;;;33.58;16.25;;;4.60;99.90;;;;;;5107741;27;20473;-61
2022/01/23 05:12:52;;;;;;;32.78;16.15;;;5.50;99.90;;;;;;5092878;28;20466;-61
2022/01/23 05:15:18;;;;;;;32.70;16.20;;;4.80;99.90;;;;;;5091698;28;20382;-62
2022/01/23 05:17:43;;;;;;;35.58;16.17;;;4.90;99.90;;;;;;5092169;28;20410;-61
2022/01/23 05:20:11;;;;;;;30.90;14.80;;;4.90;99.90;;;;;;5092716;28;20691;-61
2022/01/23 05:22:45;;;;;;;33.13;16.63;;;4.90;99.90;;;;;;5091789;28;20911;-61
2022/01/23 05:27:36;;;;;;;32.83;16.13;;;5.00;99.90;;;;;;5091881;28;20405;-61
2022/01/23 05:30:04;;;;;;;31.92;15.68;;;4.90;99.90;;;;;;5091072;28;20393;-61
2022/01/23 05:32:41;;;;;;;33.90;15.93;;;5.00;99.90;;;;;;5091481;28;20378;-61
2022/01/23 05:35:09;;;;;;;34.17;16.00;;;4.90;99.90;;;;;;5091047;28;20393;-61
2022/01/23 05:37:36;;;;;;;30.43;14.77;;;4.90;99.90;;;;;;5091636;28;20497;-61
2022/01/23 05:40:03;;;;;;;30.67;14.77;;;5.00;99.90;;;;;;5092149;28;20461;-61
2022/01/23 05:42:29;;;;;;;28.52;14.95;;;5.10;99.90;;;;;;5090041;28;20727;-61
2022/01/23 05:44:54;;;;;;;32.03;14.80;;;5.10;99.90;;;;;;5092254;28;20366;-61
2022/01/23 05:47:20;;;;;;;34.35;15.00;;;5.10;99.90;;;;;;5091211;28;20409;-61
2022/01/23 05:49:46;;;;;;;30.73;15.13;;;5.00;99.90;;;;;;5091770;28;20369;-61
2022/01/23 05:52:12;;;;;;;33.30;15.67;;;5.00;99.90;;;;;;5092287;28;20722;-61
2022/01/23 05:54:37;;;;;;;33.53;16.17;;;4.90;99.90;;;;;;5091016;28;20378;-61
2022/01/23 05:57:03;;;;;;;33.87;16.07;;;4.90;99.90;;;;;;5091821;28;20739;-61
2022/01/23 05:59:29;;;;;;;32.80;16.83;;;5.00;99.90;;;;;;5090803;28;20397;-61
2022/01/23 06:01:55;;;;;;;32.42;15.55;;;4.90;99.90;;;;;;5091718;28;20528;-61
2022/01/23 06:04:22;;;;;;;33.88;15.93;;;4.90;99.90;;;;;;5090908;28;20378;-61
2022/01/23 06:06:49;;;;;;;32.40;15.93;;;5.80;99.90;;;;;;5091748;28;20402;-61
2022/01/23 06:09:15;;;;;;;34.45;15.25;;;4.90;99.90;;;;;;5090993;28;20481;-61
2022/01/23 06:11:41;;;;;;;33.03;16.17;;;4.90;99.90;;;;;;5089725;28;20386;-61
2022/01/23 06:14:08;;;;;;;34.70;15.93;;;4.80;99.90;;;;;;5091806;28;20378;-62
2022/01/23 06:16:35;;;;;;;36.13;15.25;;;4.90;99.90;;;;;;5090090;28;20413;-61
2022/01/23 06:19:00;;;;;;;33.73;15.90;;;4.90;99.90;;;;;;5091782;28;20800;-62
2022/01/23 06:21:27;;;;;;;34.38;16.20;;;4.90;99.90;;;;;;5090746;28;20386;-61
2022/01/23 06:24:06;;;;;;;35.90;16.95;;;5.00;99.90;;;;;;5090964;28;20413;-60
2022/01/23 06:26:59;;;;;;;32.28;15.90;;;5.00;99.90;;;;;;5090552;28;20462;-61
2022/01/23 06:29:27;;;;;;;30.20;15.50;;;5.10;99.90;;;;;;5090494;28;20382;-61
2022/01/23 06:31:57;;;;;;;31.02;15.10;;;5.10;99.90;;;;;;5091169;28;20474;-62
2022/01/23 06:34:24;;;;;;;30.67;15.88;;;5.10;99.90;;;;;;5090515;28;20406;-62
2022/01/23 06:36:52;;;;;;;36.50;17.10;;;5.10;99.90;;;;;;5090961;28;20433;-61
2022/01/23 06:39:18;;;;;;;36.45;16.20;;;5.00;99.90;;;;;;5090380;28;20374;-61
2022/01/23 06:41:44;;;;;;;32.85;15.88;;;5.00;99.90;;;;;;5090803;28;20404;-62
2022/01/23 06:44:10;;;;;;;32.67;16.60;;;5.00;99.90;;;;;;5090911;28;20383;-62
2022/01/23 06:46:39;;;;;;;35.33;16.73;;;5.00;99.90;;;;;;5089528;28;20425;-61
2022/01/23 06:49:06;;;;;;;36.40;16.83;;;5.00;99.90;;;;;;5090702;28;20392;-61
2022/01/23 06:51:31;;;;;;;34.38;16.75;;;4.90;99.90;;;;;;5089196;28;20382;-61
2022/01/23 06:53:57;;;;;;;35.20;16.75;;;4.80;99.90;;;;;;5088855;28;20871;-62
2022/01/23 06:56:23;;;;;;;37.93;17.33;;;4.80;99.90;;;;;;5089495;28;20382;-61
2022/01/23 06:58:49;;;;;;;35.17;18.10;;;4.80;99.90;;;;;;5089769;28;20469;-62
2022/01/23 07:01:15;;;;;;;35.95;17.55;;;4.70;99.90;;;;;;5090002;28;20373;-67
2022/01/23 07:03:41;;;;;;;34.80;16.40;;;4.80;99.90;;;;;;5086313;28;20936;-69
2022/01/23 07:06:07;;;;;;;33.20;17.17;;;4.80;99.90;;;;;;5084039;28;20402;-69
2022/01/23 07:08:34;;;;;;;35.55;17.23;;;4.90;99.90;;;;;;5088990;28;20879;-70
2022/01/23 07:11:00;;;;;;;37.53;17.58;;;4.90;99.90;;;;;;5089924;28;20374;-65
2022/01/23 07:13:26;;;;;;;38.60;17.10;;;4.90;99.90;;;;;;5089215;28;20374;-65
2022/01/23 07:15:51;;;;;;;35.00;16.90;;;4.90;99.90;;;;;;5089821;28;20485;-65
2022/01/23 07:18:18;;;;;;;37.22;16.92;;;4.80;99.90;;;;;;5087154;28;20399;-63
2022/01/23 07:20:44;;;;;;;34.85;17.10;;;4.70;99.90;;;;;;5088257;28;20537;-65
2022/01/23 07:23:10;;;;;;;35.63;16.55;;;4.70;99.90;;;;;;5089435;28;20378;-65
2022/01/23 07:25:36;;;;;;;41.78;17.30;;;4.60;99.90;;;;;;5088332;28;20438;-66
2022/01/23 07:28:04;;;;;;;36.83;17.15;;;4.60;99.90;;;;;;5089608;28;20394;-67
2022/01/23 07:30:41;;;;;;;36.77;17.30;;;4.70;99.90;;;;;;5088979;28;20433;-65
2022/01/23 07:33:06;;;;;;;39.50;18.65;;;4.70;99.90;;;;;;5088592;28;20439;-60
2022/01/23 07:35:33;;;;;;;36.25;17.27;;;4.70;99.90;;;;;;5087602;28;20378;-66
2022/01/23 07:37:59;;;;;;;33.17;16.40;;;4.80;99.90;;;;;;5089460;28;20370;-66
2022/01/23 07:40:25;;;;;;;38.05;16.67;;;4.80;99.90;;;;;;5088305;28;20386;-65
2022/01/23 07:42:50;;;;;;;36.38;17.77;;;4.80;99.90;;;;;;5089619;28;20382;-66
2022/01/23 07:45:16;;;;;;;33.78;16.25;;;4.90;99.90;;;;;;5089467;28;20476;-66
2022/01/23 07:47:42;;;;;;;32.90;16.27;;;5.00;99.90;;;;;;5088317;28;20390;-65
2022/01/23 07:50:09;;;;;;;35.87;17.13;;;5.10;99.90;;;;;;5089365;28;20934;-63
2022/01/23 07:52:37;;;;;;;34.00;16.40;;;5.30;99.90;;;;;;5088372;28;20452;-64
2022/01/23 07:55:05;;;;;;;33.20;16.35;;;5.30;99.90;;;;;;5088905;28;20381;-64
2022/01/23 07:57:31;;;;;;;31.30;16.60;;;5.40;99.90;;;;;;5087124;28;20429;-62
2022/01/23 07:59:59;;;;;;;32.88;16.27;;;5.30;99.90;;;;;;5089138;28;20695;-63
2022/01/23 08:02:24;;;;;;;47.38;22.73;;;5.30;99.90;;;;;;5088406;28;20522;-62
2022/01/23 08:04:50;;;;;;;39.97;18.90;;;5.40;99.90;;;;;;5088017;28;20868;-64
2022/01/23 08:07:31;;;;;;;40.03;19.27;;;5.50;99.90;;;;;;5088637;28;20405;-63
2022/01/23 08:10:02;;;;;;;35.72;18.02;;;5.60;99.90;;;;;;5088115;28;20447;-63
2022/01/23 08:12:29;;;;;;;35.15;18.50;;;5.60;99.90;;;;;;5087967;28;20409;-63
2022/01/23 08:14:56;;;;;;;36.20;17.50;;;5.60;99.90;;;;;;5087674;28;21151;-65
2022/01/23 08:17:25;;;;;;;37.33;17.17;;;5.60;99.90;;;;;;5088567;28;20406;-63
2022/01/23 08:19:55;;;;;;;32.05;17.20;;;5.60;99.90;;;;;;5093180;28;20381;-64
2022/01/23 08:22:27;;;;;;;36.03;17.20;;;5.50;99.90;;;;;;5092554;28;20615;-63
2022/01/23 08:24:54;;;;;;;39.17;18.10;;;5.50;99.90;;;;;;5093414;28;20378;-64
2022/01/23 08:27:22;;;;;;;35.22;17.67;;;5.40;99.90;;;;;;5093946;28;20426;-63
2022/01/23 08:29:48;;;;;;;35.10;15.82;;;5.50;99.90;;;;;;5092557;28;20413;-63
2022/01/23 08:32:14;;;;;;;35.15;17.05;;;5.40;99.90;;;;;;5087873;28;20439;-64
2022/01/23 08:34:40;;;;;;;34.63;16.45;;;5.50;99.90;;;;;;5071916;28;20488;-64
2022/01/23 08:37:07;;;;;;;35.40;16.50;;;5.50;99.90;;;;;;5079622;28;20387;-63
2022/01/23 08:39:36;;;;;;;33.38;16.70;;;5.50;99.90;;;;;;5080223;28;20891;-63
2022/01/23 08:42:06;;;;;;;37.10;17.40;;;5.40;99.90;;;;;;5077050;28;20387;-64
2022/01/23 08:44:33;;;;;;;34.50;15.95;;;5.50;99.90;;;;;;5078863;28;20380;-64
2022/01/23 08:46:59;;;;;;;36.00;16.05;;;5.40;99.90;;;;;;5081107;28;20418;-65
2022/01/23 08:49:26;;;;;;;35.53;16.97;;;5.40;99.90;;;;;;5083540;28;20403;-62
2022/01/23 08:51:53;;;;;;;36.33;17.20;;;5.50;99.90;;;;;;5088398;28;20819;-63
2022/01/23 08:54:19;;;;;;;34.05;16.20;;;5.60;99.90;;;;;;5072024;28;20376;-63
2022/01/23 08:56:45;;;;;;;36.17;17.30;;;5.70;99.90;;;;;;5081160;28;20400;-63
2022/01/23 08:59:11;;;;;;;37.97;18.90;;;5.90;99.90;;;;;;5086803;28;20386;-64
2022/01/23 09:01:37;;;;;;;37.07;17.07;;;5.80;99.90;;;;;;5083909;28;20459;-64
2022/01/23 09:04:03;;;;;;;36.33;17.30;;;5.90;99.90;;;;;;5076686;28;20387;-64
2022/01/23 09:06:29;;;;;;;34.88;17.88;;;5.80;99.90;;;;;;5075643;28;20557;-64
2022/01/23 09:08:57;;;;;;;34.25;17.58;;;6.00;99.90;;;;;;5088740;28;20468;-65
2022/01/23 09:11:56;;;;;;;40.65;18.30;;;6.40;99.90;;;;;;5096214;28;20380;-59
2022/01/23 09:14:10;;;;;;;36.38;17.60;;;5.90;99.90;;;;;;5086729;28;20452;-59
2022/01/23 09:16:38;;;;;;;33.28;16.63;;;6.00;99.90;;;;;;5096866;28;20415;-59
2022/01/23 09:19:04;;;;;;;36.40;17.40;;;6.20;99.90;;;;;;5094638;28;20400;-55
2022/01/23 09:21:30;;;;;;;33.13;17.17;;;6.20;99.90;;;;;;5086842;28;20403;-55
2022/01/23 09:23:56;;;;;;;34.38;17.42;;;6.30;99.90;;;;;;5078334;28;20848;-57
2022/01/23 09:26:23;;;;;;;32.55;16.80;;;6.20;99.90;;;;;;5082123;28;20398;-58
2022/01/23 09:28:52;;;;;;;31.38;16.92;;;6.30;99.90;;;;;;5084363;28;20396;-56
2022/01/23 09:31:27;;;;;;;38.03;17.87;;;6.40;99.90;;;;;;5084495;28;20407;-55
2022/01/23 09:33:53;;;;;;;31.27;16.42;;;6.40;99.90;;;;;;5082437;28;20490;-60
2022/01/23 09:36:19;;;;;;;33.30;16.98;;;6.40;99.90;;;;;;5078142;28;20519;-59
2022/01/23 09:38:45;;;;;;;32.07;16.03;;;6.50;99.90;;;;;;5085905;28;20392;-60
2022/01/23 09:41:20;;;;;;;30.55;16.80;;;6.70;99.90;;;;;;5076139;28;20415;-56
2022/01/23 09:43:47;;;;;;;34.15;17.05;;;6.60;99.90;;;;;;5080141;28;20522;-57
2022/01/23 09:46:13;;;;;;;35.88;17.85;;;6.40;99.90;;;;;;5092806;28;20500;-58
2022/01/23 09:48:43;;;;;;;35.13;17.67;;;6.20;99.90;;;;;;5087062;28;21161;-57
2022/01/23 09:51:09;;;;;;;32.10;16.45;;;6.30;99.90;;;;;;5078605;28;20836;-57
2022/01/23 09:53:38;;;;;;;35.58;18.70;;;6.30;99.90;;;;;;5103438;28;20385;-55
2022/01/23 09:56:06;;;;;;;34.75;18.13;;;6.30;99.90;;;;;;5075445;28;20805;-57
2022/01/23 09:58:32;;;;;;;31.85;17.20;;;6.30;99.90;;;;;;5075808;28;20398;-57
2022/01/23 10:00:59;;;;;;;30.08;17.10;;;6.40;99.90;;;;;;5091064;28;20481;-57
2022/01/23 10:03:25;;;;;;;32.97;17.40;;;6.50;99.90;;;;;;5076402;28;20399;-57
2022/01/23 10:05:55;;;;;;;31.83;17.40;;;6.60;99.90;;;;;;5087735;28;20412;-56
2022/01/23 10:08:22;;;;;;;34.75;18.00;;;6.60;99.90;;;;;;5074708;28;20399;-59
2022/01/23 10:10:54;;;;;;;32.15;17.65;;;6.70;99.90;;;;;;5084675;28;20499;-57
2022/01/23 10:13:24;;;;;;;31.40;17.90;;;6.90;99.90;;;;;;5092008;28;20426;-58
2022/01/23 10:15:49;;;;;;;31.50;18.38;;;6.90;99.90;;;;;;5077284;28;20888;-57
2022/01/23 10:18:17;;;;;;;31.27;17.38;;;6.90;99.90;;;;;;5087363;28;20544;-57
2022/01/23 10:20:43;;;;;;;36.00;18.20;;;7.10;99.90;;;;;;5088847;28;20651;-57
2022/01/23 10:23:09;;;;;;;33.20;18.30;;;7.40;99.90;;;;;;5075808;28;20904;-57
2022/01/23 10:25:40;;;;;;;35.35;18.15;;;7.60;99.90;;;;;;5085967;28;20458;-66
2022/01/23 10:28:09;;;;;;;75.47;50.17;;;7.70;99.90;;;;;;5082814;28;20398;-60
2022/01/23 10:30:47;;;;;;;88.10;60.83;;;7.80;99.90;;;;;;5086647;28;20401;-56
2022/01/23 10:33:21;;;;;;;35.15;20.90;;;7.50;99.90;;;;;;5077715;28;20608;-57
2022/01/23 10:35:56;;;;;;;34.53;18.70;;;7.40;99.90;;;;;;5077294;28;20411;-57
2022/01/23 10:38:24;;;;;;;32.92;17.20;;;7.50;99.90;;;;;;5076084;28;20435;-58
2022/01/23 10:41:05;;;;;;;30.08;15.25;;;7.60;99.90;;;;;;5070124;28;20400;-57
2022/01/23 10:49:19;;;;;;;29.73;16.52;;;8.10;99.90;;;;;;5035934;28;20451;-57
2022/01/23 10:51:49;;;;;;;28.92;14.27;;;8.40;99.90;;;;;;5045092;28;20451;-57
2022/01/23 10:54:18;;;;;;;27.75;16.02;;;8.20;99.90;;;;;;5057308;28;20414;-57
2022/01/23 10:56:57;;;;;;;31.47;16.53;;;8.30;99.90;;;;;;5075889;28;20482;-57
2022/01/23 10:59:24;;;;;;;27.90;15.10;;;8.30;99.90;;;;;;5069648;28;20430;-59
2022/01/23 11:02:07;;;;;;;29.90;15.40;;;8.30;99.90;;;;;;5087509;28;20390;-57
2022/01/23 11:05:03;;;;;;;32.40;16.17;;;8.40;99.90;;;;;;5083044;28;20394;-58
2022/01/23 11:07:31;;;;;;;29.88;16.73;;;8.10;99.90;;;;;;5073346;28;20423;-58
2022/01/23 11:10:17;;;;;;;33.40;16.75;;;8.00;99.90;;;;;;5082104;28;20399;-57
2022/01/23 11:18:38;;;;;;;29.53;16.40;;;8.00;99.90;;;;;;5081297;28;20488;-58
2022/01/23 11:21:16;;;;;;;32.53;18.25;;;7.60;99.90;;;;;;5087279;28;20389;-56
2022/01/23 11:23:42;;;;;;;29.40;15.43;;;8.40;99.90;;;;;;5074285;28;20433;-56
2022/01/23 11:26:11;;;;;;;25.67;13.48;;;8.50;99.90;;;;;;5085215;28;20443;-56
2022/01/23 11:28:46;;;;;;;25.60;13.20;;;8.40;99.90;;;;;;5080534;28;20499;-57
2022/01/23 11:31:17;;;;;;;22.37;11.73;;;8.60;99.90;;;;;;5079557;28;20425;-57
2022/01/23 11:33:44;;;;;;;25.58;13.90;;;8.70;99.90;;;;;;5072225;28;20391;-57
2022/01/23 11:36:10;;;;;;;24.42;12.77;;;8.50;99.90;;;;;;5071707;28;20411;-57
2022/01/23 11:38:39;;;;;;;24.40;13.10;;;8.70;99.90;;;;;;5072740;28;20403;-57
2022/01/23 11:54:44;;;;;;;19.57;10.17;;;9.00;99.90;;;;;;5081945;28;20465;-58
2022/01/23 11:57:38;;;;;;;21.70;10.33;;;9.00;99.90;;;;;;5088349;28;20416;-57
2022/01/23 12:00:11;;;;;;;18.85;10.18;;;9.10;99.90;;;;;;5081227;28;20405;-58
2022/01/23 12:02:41;;;;;;;21.37;10.50;;;9.20;99.90;;;;;;5099742;27;20870;-58
2022/01/23 12:05:14;;;;;;;21.02;11.48;;;9.30;99.90;;;;;;5076249;28;20823;-58
2022/01/23 12:07:42;;;;;;;21.67;11.63;;;9.40;99.90;;;;;;5087940;28;20927;-58
2022/01/23 12:10:30;;;;;;;23.63;13.20;;;9.20;99.90;;;;;;5088635;28;20434;-58
2022/01/23 12:13:22;;;;;;;21.92;11.30;;;9.20;99.90;;;;;;5109096;28;20430;-65
2022/01/23 12:16:39;;;;;;;20.10;11.10;;;9.30;99.90;;;;;;5089627;28;20443;-65
2022/01/23 12:18:40;;;;;;;24.88;12.93;;;9.20;99.90;;;;;;5064936;28;20706;-63
2022/01/23 12:21:26;;;;;;;20.92;10.90;;;9.40;99.90;;;;;;5069653;28;20453;-64
2022/01/23 12:23:59;;;;;;;21.17;11.38;;;9.10;99.90;;;;;;5069492;28;20706;-64
2022/01/23 12:26:25;;;;;;;21.98;11.10;;;9.20;99.90;;;;;;5068636;28;20407;-64
2022/01/23 12:28:50;;;;;;;19.33;10.55;;;9.20;99.90;;;;;;5069886;28;20390;-64
2022/01/23 12:31:23;;;;;;;18.97;10.00;;;9.20;99.90;;;;;;5069299;28;20383;-64
2022/01/23 12:33:51;;;;;;;18.00;8.52;;;9.20;99.90;;;;;;5070983;28;20433;-65
2022/01/23 12:36:18;;;;;;;19.27;9.88;;;9.20;99.90;;;;;;5089967;28;20385;-64
2022/01/23 12:38:47;;;;;;;17.92;9.50;;;9.20;99.90;;;;;;5088474;28;20465;-65
2022/01/23 12:41:33;;;;;;;16.80;8.55;;;9.40;99.90;;;;;;5089377;28;20378;-64
2022/01/23 12:44:08;;;;;;;16.90;8.40;;;9.10;99.90;;;;;;5088867;28;20747;-64
2022/01/23 12:46:47;;;;;;;16.92;9.13;;;9.00;99.90;;;;;;5088637;28;20456;-64
2022/01/23 12:49:30;;;;;;;14.48;7.28;;;8.80;99.90;;;;;;5089241;28;20401;-64
2022/01/23 12:52:08;;;;;;;16.77;9.25;;;8.90;99.90;;;;;;5089472;28;20429;-64
2022/01/23 12:54:53;;;;;;;10.90;5.50;;;8.90;99.90;;;;;;5088076;28;20524;-64
2022/01/23 12:57:34;;;;;;;5.00;1.83;;;9.00;99.90;;;;;;5088784;28;20790;-64
2022/01/23 13:00:05;;;;;;;7.07;2.80;;;8.60;99.90;;;;;;5089157;28;20394;-65
2022/01/23 13:02:39;;;;;;;9.18;4.30;;;8.70;99.90;;;;;;5087075;28;20463;-65
2022/01/23 13:05:05;;;;;;;7.10;3.30;;;8.40;99.90;;;;;;5089566;28;20386;-64
2022/01/23 13:10:12;;;;;;;7.55;3.60;;;8.50;99.90;;;;;;5094880;28;20394;-64
2022/01/23 13:31:16;;;;;;;9.10;3.93;;;7.90;99.90;;;;;;5092426;28;20385;-63
2022/01/23 13:33:47;;;;;;;8.90;3.90;;;7.80;99.90;;;;;;5091637;28;20874;-63
2022/01/23 13:36:13;;;;;;;8.10;3.40;;;7.70;99.90;;;;;;5092228;28;20382;-63
2022/01/23 13:38:39;;;;;;;9.27;4.00;;;7.70;99.90;;;;;;5091463;28;20477;-63
2022/01/23 13:41:24;;;;;;;9.83;4.57;;;7.50;99.90;;;;;;5092088;28;20432;-63
2022/01/23 13:52:00;;;;;;;8.07;3.90;;;7.50;99.90;;;;;;5090968;28;20378;-63
2022/01/23 14:02:34;;;;;;;11.70;6.00;;;7.30;99.90;;;;;;5092205;28;20471;-63
2022/01/23 14:05:03;;;;;;;14.43;8.00;;;7.30;99.90;;;;;;5091972;28;20405;-63
2022/01/23 14:07:29;;;;;;;12.88;6.80;;;7.30;99.90;;;;;;5091355;28;20593;-62
2022/01/23 14:09:58;;;;;;;11.85;5.20;;;7.50;99.90;;;;;;5090646;28;20386;-63
2022/01/23 14:12:25;;;;;;;14.38;7.60;;;7.70;99.90;;;;;;5090976;28;20382;-62
2022/01/23 14:14:55;;;;;;;15.68;7.50;;;7.60;99.90;;;;;;5104563;28;20430;-63
2022/01/23 14:17:23;;;;;;;18.05;9.35;;;7.60;99.90;;;;;;5092994;28;20575;-63
2022/01/23 14:20:14;;;;;;;19.43;9.27;;;7.50;99.90;;;;;;5111002;28;20431;-63
2022/01/23 14:22:46;;;;;;;18.13;8.50;;;7.50;99.90;;;;;;5111181;28;20381;-63
2022/01/23 14:25:27;;;;;;;12.95;6.47;;;7.40;99.90;;;;;;5111030;28;20377;-63
2022/01/23 14:28:13;;;;;;;12.45;5.47;;;7.30;99.90;;;;;;5091132;28;20463;-63
2022/01/23 14:30:48;;;;;;;11.93;6.40;;;7.30;99.90;;;;;;5090034;28;20429;-63
2022/01/23 14:33:17;;;;;;;11.13;5.55;;;7.30;99.90;;;;;;5090982;28;20370;-63
2022/01/23 14:35:43;;;;;;;7.55;3.47;;;7.30;99.90;;;;;;5090240;28;20736;-63
2022/01/23 14:38:35;;;;;;;8.52;3.60;;;7.30;99.90;;;;;;5090862;28;20386;-65
2022/01/23 14:41:07;;;;;;;9.50;4.43;;;7.10;99.90;;;;;;5087463;28;20382;-63
2022/01/23 14:43:36;;;;;;;10.90;4.78;;;7.20;99.90;;;;;;5088609;28;20866;-62
2022/01/23 14:46:04;;;;;;;11.88;5.80;;;7.10;99.90;;;;;;5090564;28;20441;-62
2022/01/23 14:48:31;;;;;;;8.65;4.50;;;7.00;99.90;;;;;;5090037;28;20439;-63
2022/01/23 14:51:02;;;;;;;9.27;4.33;;;6.80;99.90;;;;;;5090515;28;20434;-63
2022/01/23 14:53:28;;;;;;;9.00;4.30;;;6.70;99.90;;;;;;5099601;28;20433;-62
2022/01/23 14:55:56;;;;;;;8.93;3.40;;;6.70;99.90;;;;;;5089060;28;21013;-63
2022/01/23 14:58:22;;;;;;;8.00;3.47;;;6.70;99.90;;;;;;5086982;28;20944;-62
2022/01/23 15:00:52;;;;;;;9.75;3.58;;;6.70;99.90;;;;;;5086971;28;20490;-63
2022/01/23 15:03:18;;;;;;;9.70;4.60;;;6.70;99.90;;;;;;5090907;28;20409;-64
2022/01/23 15:05:44;;;;;;;11.00;5.20;;;6.90;99.90;;;;;;5089694;28;21267;-63
2022/01/23 15:08:13;;;;;;;9.05;4.63;;;7.10;99.90;;;;;;5080582;28;20883;-64
2022/01/23 15:10:41;;;;;;;11.45;6.50;;;7.20;99.90;;;;;;5087896;28;20477;-63
2022/01/23 15:13:07;;;;;;;15.00;7.55;;;7.30;99.90;;;;;;5078904;28;20403;-63
2022/01/23 15:15:33;;;;;;;14.70;7.70;;;7.20;99.90;;;;;;5085550;28;20394;-63
2022/01/23 15:17:59;;;;;;;11.63;6.50;;;7.10;99.90;;;;;;5078054;28;20904;-63
2022/01/23 15:20:25;;;;;;;10.07;5.63;;;7.20;99.90;;;;;;5084593;28;20398;-62
2022/01/23 15:22:51;;;;;;;7.75;4.07;;;7.20;99.90;;;;;;5087842;28;20393;-62
2022/01/23 15:25:18;;;;;;;11.47;5.20;;;7.20;99.90;;;;;;5088318;28;20397;-63
2022/01/23 15:27:45;;;;;;;9.93;4.60;;;7.10;99.90;;;;;;5083420;28;20410;-64
2022/01/23 15:30:15;;;;;;;8.45;3.75;;;7.00;99.90;;;;;;5089220;28;20393;-63
2022/01/23 15:32:41;;;;;;;9.40;4.60;;;7.10;99.90;;;;;;5088604;28;20589;-64
2022/01/23 15:35:08;;;;;;;10.40;4.50;;;7.10;99.90;;;;;;5089029;28;20842;-62
2022/01/23 15:37:34;;;;;;;10.75;4.82;;;7.00;99.90;;;;;;5088981;28;20413;-61
2022/01/23 15:40:00;;;;;;;10.90;4.70;;;7.00;99.90;;;;;;5098797;28;20898;-63
2022/01/23 15:42:26;;;;;;;11.68;6.00;;;7.00;99.90;;;;;;5092719;28;20377;-60
2022/01/23 15:44:52;;;;;;;10.37;5.07;;;7.00;99.90;;;;;;5087556;28;20887;-62
2022/01/23 15:47:17;;;;;;;10.20;4.50;;;7.00;99.90;;;;;;5089279;28;20741;-62
2022/01/23 15:49:43;;;;;;;8.33;4.30;;;7.00;99.90;;;;;;5095864;28;20400;-61
2022/01/23 15:52:10;;;;;;;8.95;4.40;;;7.00;99.90;;;;;;5100553;28;20388;-61
2022/01/23 15:54:35;;;;;;;8.93;4.00;;;6.80;99.90;;;;;;5105051;28;20413;-61
2022/01/23 15:57:02;;;;;;;9.23;4.10;;;6.80;99.90;;;;;;5106000;28;20916;-61
2022/01/23 15:59:28;;;;;;;8.77;3.97;;;6.80;99.90;;;;;;5088891;28;20492;-60
2022/01/23 16:01:54;;;;;;;9.68;4.43;;;6.80;99.90;;;;;;5090132;28;20477;-61
2022/01/23 16:04:21;;;;;;;9.00;4.43;;;6.70;99.90;;;;;;5090843;27;20408;-62
2022/01/23 16:06:47;;;;;;;8.98;4.28;;;6.50;99.90;;;;;;5091246;28;20412;-61